createdAt,value
2023-03-07T00:02:13.444Z,1.82
2023-03-07T00:04:46.046Z,1.47
2023-03-07T00:07:14.186Z,2.26
2023-03-07T00:09:42.345Z,2.25
2023-03-07T00:12:11.328Z,2.21
2023-03-07T00:14:39.390Z,2.20
2023-03-07T00:17:07.416Z,2.12
2023-03-07T00:19:35.256Z,1.34
2023-03-07T00:22:05.286Z,2.12
2023-03-07T00:24:33.268Z,2.17
2023-03-07T00:27:01.100Z,2.21
2023-03-07T00:29:29.461Z,2.10
2023-03-07T00:31:57.279Z,2.14
2023-03-07T00:34:25.104Z,2.11
2023-03-07T00:36:54.066Z,2.09
2023-03-07T00:39:23.680Z,2.02
2023-03-07T00:41:51.519Z,2.10
2023-03-07T00:44:19.324Z,2.15
2023-03-07T00:46:47.156Z,2.10
2023-03-07T00:49:15.087Z,2.08
2023-03-07T00:51:43.439Z,2.11
2023-03-07T00:54:11.342Z,2.01
2023-03-07T00:56:40.546Z,1.85
2023-03-07T00:59:08.525Z,1.92
2023-03-07T01:01:36.981Z,1.95
2023-03-07T01:04:05.376Z,1.86
2023-03-07T01:06:34.525Z,2.05
2023-03-07T01:09:05.362Z,1.97
2023-03-07T01:11:35.182Z,1.73
2023-03-07T01:14:06.816Z,1.95
2023-03-07T01:16:38.865Z,1.99
2023-03-07T01:19:07.940Z,2.05
2023-03-07T01:21:37.700Z,2.02
2023-03-07T01:24:05.854Z,2.06
2023-03-07T01:26:35.443Z,1.93
2023-03-07T01:29:07.068Z,1.76
2023-03-07T01:31:37.198Z,2.03
2023-03-07T01:34:06.594Z,2.10
2023-03-07T01:36:38.421Z,1.99
2023-03-07T01:39:10.402Z,1.82
2023-03-07T01:41:41.633Z,2.13
2023-03-07T01:44:17.281Z,2.04
2023-03-07T01:46:48.744Z,1.98
2023-03-07T01:49:25.377Z,2.15
2023-03-07T01:52:04.184Z,2.10
2023-03-07T01:54:35.827Z,1.89
2023-03-07T01:57:04.622Z,2.15
2023-03-07T01:59:37.755Z,2.15
2023-03-07T02:02:11.931Z,2.13
2023-03-07T02:04:45.338Z,2.14
2023-03-07T02:07:14.851Z,1.61
2023-03-07T02:09:47.424Z,2.00
2023-03-07T02:12:16.523Z,1.97
2023-03-07T02:14:48.397Z,2.50
2023-03-07T02:17:16.580Z,2.29
2023-03-07T02:19:54.604Z,2.26
2023-03-07T02:22:22.535Z,1.57
2023-03-07T02:24:54.396Z,2.31
2023-03-07T02:27:25.415Z,2.08
2023-03-07T02:29:53.727Z,2.49
2023-03-07T02:32:22.361Z,2.54
2023-03-07T02:34:50.266Z,2.61
2023-03-07T02:37:26.096Z,2.57
2023-03-07T02:39:55.948Z,2.66
2023-03-07T02:42:29.647Z,2.59
2023-03-07T02:45:10.046Z,2.60
2023-03-07T02:47:39.474Z,2.78
2023-03-07T02:50:08.470Z,2.45
2023-03-07T02:52:39.596Z,2.78
2023-03-07T02:55:09.161Z,2.62
2023-03-07T02:57:41.991Z,2.59
2023-03-07T03:00:12.379Z,2.75
2023-03-07T03:02:40.217Z,2.91
2023-03-07T03:05:09.040Z,2.89
2023-03-07T03:07:36.903Z,3.02
2023-03-07T03:10:05.459Z,2.90
2023-03-07T03:12:34.268Z,2.87
2023-03-07T03:15:04.385Z,2.85
2023-03-07T03:17:34.072Z,3.07
2023-03-07T03:20:01.854Z,3.04
2023-03-07T03:22:30.966Z,3.01
2023-03-07T03:24:58.953Z,3.02
2023-03-07T03:27:26.840Z,2.90
2023-03-07T03:29:55.348Z,1.54
2023-03-07T03:32:25.239Z,3.09
2023-03-07T03:34:53.200Z,2.90
2023-03-07T03:37:21.232Z,2.91
2023-03-07T03:39:49.343Z,2.88
2023-03-07T03:42:17.175Z,3.13
2023-03-07T03:44:45.352Z,3.11
2023-03-07T03:47:13.320Z,3.06
2023-03-07T03:49:42.685Z,2.84
2023-03-07T03:52:11.120Z,2.99
2023-03-07T03:54:38.880Z,3.16
2023-03-07T03:57:07.742Z,3.12
2023-03-07T03:59:35.570Z,3.11
2023-03-07T04:02:03.690Z,3.18
2023-03-07T04:04:31.571Z,2.18
2023-03-07T04:07:01.130Z,3.22
2023-03-07T04:09:29.308Z,2.95
2023-03-07T04:11:57.133Z,3.15
2023-03-07T04:14:25.436Z,3.18
2023-03-07T04:16:53.509Z,3.19
2023-03-07T04:19:22.130Z,3.14
2023-03-07T04:21:50.364Z,3.08
2023-03-07T04:24:19.866Z,3.21
2023-03-07T04:26:48.167Z,3.32
2023-03-07T04:29:16.612Z,3.22
2023-03-07T04:31:51.712Z,3.16
2023-03-07T04:34:19.722Z,3.21
2023-03-07T04:36:47.570Z,3.34
2023-03-07T04:39:15.638Z,3.31
2023-03-07T04:41:45.326Z,3.20
2023-03-07T04:44:18.256Z,3.37
2023-03-07T04:46:46.125Z,3.28
2023-03-07T04:49:14.176Z,3.25
2023-03-07T04:51:44.118Z,3.17
2023-03-07T04:54:13.637Z,3.33
2023-03-07T04:56:42.412Z,3.18
2023-03-07T04:59:13.635Z,3.38
2023-03-07T05:01:42.392Z,3.35
2023-03-07T05:04:10.340Z,3.43
2023-03-07T05:06:39.717Z,3.46
2023-03-07T05:09:08.691Z,3.44
2023-03-07T05:11:36.762Z,3.43
2023-03-07T05:14:05.246Z,3.31
2023-03-07T05:16:35.423Z,3.40
2023-03-07T05:19:05.981Z,3.38
2023-03-07T05:21:34.209Z,3.31
2023-03-07T05:24:02.532Z,3.46
2023-03-07T05:26:31.926Z,3.47
2023-03-07T05:29:00.061Z,3.21
2023-03-07T05:31:28.186Z,3.37
2023-03-07T05:33:57.574Z,3.35
2023-03-07T05:36:25.564Z,3.35
2023-03-07T05:38:56.279Z,3.25
2023-03-07T05:41:24.832Z,3.32
2023-03-07T05:43:52.616Z,2.60
2023-03-07T05:46:20.817Z,3.43
2023-03-07T05:48:48.738Z,3.44
2023-03-07T05:51:18.056Z,3.46
2023-03-07T05:53:46.489Z,3.45
2023-03-07T05:56:15.016Z,3.43
2023-03-07T05:58:43.537Z,3.64
2023-03-07T06:01:12.324Z,3.64
2023-03-07T06:03:40.921Z,3.50
2023-03-07T06:06:09.290Z,3.59
2023-03-07T06:08:38.512Z,3.28
2023-03-07T06:11:07.057Z,2.52
2023-03-07T06:13:38.293Z,2.83
2023-03-07T06:16:07.199Z,3.05
2023-03-07T06:18:35.860Z,3.00
2023-03-07T06:21:05.844Z,3.04
2023-03-07T06:23:40.027Z,3.08
2023-03-07T06:26:13.073Z,3.01
2023-03-07T06:28:43.033Z,2.85
2023-03-07T06:31:15.118Z,2.95
2023-03-07T06:33:43.628Z,3.02
2023-03-07T06:36:15.662Z,2.84
2023-03-07T06:38:48.079Z,2.65
2023-03-07T06:41:15.925Z,2.79
2023-03-07T06:43:44.066Z,2.59
2023-03-07T06:46:12.490Z,2.92
2023-03-07T06:48:43.895Z,2.98
2023-03-07T06:51:16.243Z,2.47
2023-03-07T06:53:47.285Z,1.72
2023-03-07T06:56:15.338Z,2.79
2023-03-07T06:58:44.258Z,2.80
2023-03-07T07:01:18.142Z,2.91
2023-03-07T07:03:48.404Z,2.83
2023-03-07T07:06:16.943Z,2.81
2023-03-07T07:08:44.863Z,2.76
2023-03-07T07:11:14.240Z,2.97
2023-03-07T07:13:43.451Z,2.95
2023-03-07T07:16:12.953Z,2.90
2023-03-07T07:18:41.006Z,2.71
2023-03-07T07:21:09.950Z,2.94
2023-03-07T07:23:38.121Z,2.98
2023-03-07T07:26:06.995Z,3.03
2023-03-07T07:28:38.917Z,2.96
2023-03-07T07:31:09.006Z,2.52
2023-03-07T07:33:38.301Z,3.10
2023-03-07T07:36:08.934Z,3.04
2023-03-07T07:38:37.626Z,3.08
2023-03-07T07:41:05.843Z,3.07
2023-03-07T07:43:34.582Z,2.99
2023-03-07T07:46:13.790Z,2.77
2023-03-07T07:48:42.623Z,3.18
2023-03-07T07:51:11.867Z,3.17
2023-03-07T07:53:39.909Z,2.93
2023-03-07T07:56:08.623Z,3.06
2023-03-07T07:58:36.531Z,3.16
2023-03-07T08:01:15.696Z,3.12
2023-03-07T08:03:43.755Z,2.18
2023-03-07T08:06:11.996Z,3.06
2023-03-07T08:08:40.414Z,3.02
2023-03-07T08:11:08.445Z,3.10
2023-03-07T08:13:36.272Z,2.95
2023-03-07T08:16:10.268Z,3.07
2023-03-07T08:18:39.543Z,3.15
2023-03-07T08:21:08.777Z,3.05
2023-03-07T08:23:37.051Z,2.97
2023-03-07T08:26:06.380Z,3.18
2023-03-07T08:28:34.398Z,3.12
2023-03-07T08:31:07.729Z,2.83
2023-03-07T08:33:35.833Z,2.71
2023-03-07T08:36:06.190Z,3.24
2023-03-07T08:38:34.424Z,3.16
2023-03-07T08:41:03.893Z,2.87
2023-03-07T08:43:33.985Z,3.30
2023-03-07T08:46:02.178Z,3.27
2023-03-07T08:48:30.340Z,3.19
2023-03-07T08:50:58.517Z,3.21
2023-03-07T08:53:27.684Z,3.32
2023-03-07T08:55:55.458Z,3.43
2023-03-07T08:58:23.264Z,3.63
2023-03-07T09:00:51.210Z,3.43
2023-03-07T09:03:19.038Z,3.51
2023-03-07T09:05:46.893Z,3.63
2023-03-07T09:08:14.654Z,3.64
2023-03-07T09:10:43.910Z,3.54
2023-03-07T09:13:12.136Z,3.65
2023-03-07T09:15:40.313Z,3.57
2023-03-07T09:18:08.349Z,3.60
2023-03-07T09:20:36.694Z,3.65
2023-03-07T09:23:04.520Z,2.85
2023-03-07T09:25:32.307Z,3.53
2023-03-07T09:28:01.611Z,3.38
2023-03-07T09:30:29.572Z,3.49
2023-03-07T09:32:57.364Z,3.26
2023-03-07T09:35:26.051Z,3.30
2023-03-07T09:37:54.032Z,3.15
2023-03-07T09:40:25.200Z,3.14
2023-03-07T09:43:02.272Z,3.13
2023-03-07T09:45:48.223Z,3.16
2023-03-07T09:49:04.131Z,2.96
2023-03-07T09:51:38.400Z,3.17
2023-03-07T09:54:11.726Z,3.27
2023-03-07T09:56:44.274Z,2.91
2023-03-07T09:59:23.728Z,2.39
2023-03-07T10:01:59.800Z,2.08
2023-03-07T10:04:34.030Z,2.91
2023-03-07T10:07:05.189Z,3.04
2023-03-07T10:09:33.395Z,3.06
2023-03-07T10:12:27.472Z,2.99
2023-03-07T10:15:10.240Z,2.97
2023-03-07T10:17:57.682Z,3.11
2023-03-07T10:20:36.479Z,2.67
2023-03-07T10:23:25.449Z,2.99
2023-03-07T10:25:57.222Z,3.04
2023-03-07T10:28:29.178Z,2.63
2023-03-07T10:31:00.839Z,2.83
2023-03-07T10:33:31.845Z,2.84
2023-03-07T10:36:07.640Z,2.85
2023-03-07T10:38:41.243Z,2.86
2023-03-07T10:41:14.930Z,2.92
2023-03-07T10:43:44.643Z,3.05
2023-03-07T10:46:24.719Z,2.58
2023-03-07T10:49:03.149Z,3.02
2023-03-07T10:51:47.396Z,2.96
2023-03-07T10:54:20.064Z,3.00
2023-03-07T10:57:09.157Z,3.08
2023-03-07T10:59:38.922Z,3.33
2023-03-07T11:02:29.994Z,3.43
2023-03-07T11:04:59.940Z,3.20
2023-03-07T11:07:30.166Z,3.22
2023-03-07T11:10:00.110Z,2.79
2023-03-07T11:12:31.917Z,3.25
2023-03-07T11:15:11.767Z,3.25
2023-03-07T11:17:43.470Z,2.52
2023-03-07T11:20:24.034Z,3.19
2023-03-07T11:23:08.594Z,2.97
2023-03-07T11:25:37.483Z,2.98
2023-03-07T11:28:05.916Z,2.70
2023-03-07T11:30:43.436Z,1.27
2023-03-07T11:33:18.347Z,2.88
2023-03-07T11:36:05.569Z,2.96
2023-03-07T11:38:42.331Z,2.85
2023-03-07T11:41:14.989Z,2.94
2023-03-07T11:43:52.926Z,2.97
2023-03-07T11:46:33.200Z,2.88
2023-03-07T11:49:09.686Z,3.10
2023-03-07T11:51:49.762Z,3.23
2023-03-07T11:54:27.697Z,3.10
2023-03-07T11:57:00.430Z,2.98
2023-03-07T12:00:00.531Z,3.02
2023-03-07T12:02:48.897Z,2.67
2023-03-07T12:05:27.169Z,2.92
2023-03-07T12:08:17.851Z,2.04
2023-03-07T12:10:57.013Z,2.18
2023-03-07T12:13:37.944Z,3.05
2023-03-07T12:16:19.737Z,3.06
2023-03-07T12:19:12.373Z,2.90
2023-03-07T12:22:07.149Z,2.94
2023-03-07T12:24:40.948Z,2.88
2023-03-07T12:27:16.266Z,3.07
2023-03-07T12:29:50.863Z,2.95
2023-03-07T12:32:24.480Z,3.18
2023-03-07T12:34:56.917Z,2.96
2023-03-07T12:37:29.916Z,2.96
2023-03-07T12:40:04.298Z,3.31
2023-03-07T12:42:38.293Z,3.03
2023-03-07T12:45:12.322Z,3.02
2023-03-07T12:47:56.854Z,2.80
2023-03-07T12:50:30.130Z,2.94
2023-03-07T12:53:04.993Z,3.03
2023-03-07T12:55:39.375Z,2.79
2023-03-07T12:58:13.183Z,2.80
2023-03-07T13:00:46.352Z,2.90
2023-03-07T13:03:22.578Z,2.88
2023-03-07T13:05:51.390Z,2.78
2023-03-07T13:08:24.528Z,3.04
2023-03-07T13:10:54.493Z,2.92
2023-03-07T13:13:55.382Z,3.01
2023-03-07T13:16:38.624Z,2.84
2023-03-07T13:19:44.415Z,2.73
2023-03-07T13:22:49.622Z,2.82
2023-03-07T13:26:00.436Z,2.65
2023-03-07T13:28:44.471Z,2.74
2023-03-07T13:31:40.343Z,2.83
2023-03-07T13:34:52.863Z,2.79
2023-03-07T13:37:57.799Z,2.79
2023-03-07T13:40:48.780Z,2.72
2023-03-07T13:44:06.398Z,2.92
2023-03-07T13:46:58.859Z,2.87
2023-03-07T13:49:46.493Z,2.85
2023-03-07T13:52:45.185Z,3.07
2023-03-07T13:55:24.017Z,3.06
2023-03-07T13:57:52.277Z,3.21
2023-03-07T14:00:28.173Z,3.29
2023-03-07T14:02:57.434Z,3.10
2023-03-07T14:05:25.845Z,3.19
2023-03-07T14:07:54.706Z,2.11
2023-03-07T14:10:28.231Z,3.12
2023-03-07T14:13:14.840Z,3.09
2023-03-07T14:15:53.681Z,3.26
2023-03-07T14:18:36.104Z,3.15
2023-03-07T14:21:12.766Z,2.69
2023-03-07T14:24:05.620Z,2.86
2023-03-07T14:26:36.891Z,2.99
2023-03-07T14:29:15.944Z,3.01
2023-03-07T14:31:46.059Z,3.00
2023-03-07T14:34:18.993Z,3.09
2023-03-07T14:36:50.450Z,3.03
2023-03-07T14:39:19.067Z,2.79
2023-03-07T14:41:56.787Z,2.63
2023-03-07T14:44:42.894Z,2.70
2023-03-07T14:47:29.198Z,2.91
2023-03-07T14:50:06.055Z,2.73
2023-03-07T14:52:34.647Z,2.76
2023-03-07T14:55:05.064Z,1.94
2023-03-07T14:57:35.353Z,2.92
2023-03-07T15:00:06.442Z,3.07
2023-03-07T15:02:35.798Z,2.92
2023-03-07T15:05:04.655Z,2.77
2023-03-07T15:07:37.060Z,3.08
2023-03-07T15:10:05.431Z,2.07
2023-03-07T15:12:33.318Z,3.16
2023-03-07T15:15:04.549Z,3.12
2023-03-07T15:17:43.609Z,3.22
2023-03-07T15:20:20.717Z,3.01
2023-03-07T15:22:48.716Z,2.91
2023-03-07T15:25:22.664Z,3.03
2023-03-07T15:27:59.784Z,2.98
2023-03-07T15:30:30.796Z,3.00
2023-03-07T15:33:16.655Z,2.10
2023-03-07T15:35:44.989Z,2.69
2023-03-07T15:38:18.970Z,2.64
2023-03-07T15:40:47.198Z,2.53
2023-03-07T15:43:25.560Z,2.54
2023-03-07T15:46:04.345Z,2.86
2023-03-07T15:48:48.440Z,2.70
2023-03-07T15:51:18.138Z,2.80
2023-03-07T15:53:54.621Z,2.89
2023-03-07T15:56:25.702Z,2.77
2023-03-07T15:58:56.230Z,2.92
2023-03-07T16:01:26.082Z,2.64
2023-03-07T16:03:57.134Z,3.08
2023-03-07T16:06:33.262Z,2.97
2023-03-07T16:09:02.238Z,2.92
2023-03-07T16:11:30.054Z,2.93
2023-03-07T16:13:58.576Z,2.78
2023-03-07T16:16:29.614Z,2.69
2023-03-07T16:18:59.193Z,2.74
2023-03-07T16:21:27.312Z,2.70
2023-03-07T16:23:55.167Z,2.70
2023-03-07T16:26:25.223Z,2.90
2023-03-07T16:28:54.346Z,2.64
2023-03-07T16:31:22.666Z,2.95
2023-03-07T16:33:50.602Z,2.54
2023-03-07T16:36:19.989Z,2.51
2023-03-07T16:38:48.102Z,2.06
2023-03-07T16:41:18.366Z,2.16
2023-03-07T16:43:47.913Z,1.97
2023-03-07T16:46:18.144Z,2.09
2023-03-07T16:48:46.730Z,2.03
2023-03-07T16:51:17.871Z,1.84
2023-03-07T16:53:47.852Z,1.85
2023-03-07T16:56:23.665Z,1.84
2023-03-07T16:58:52.206Z,1.58
2023-03-07T17:01:20.107Z,1.96
2023-03-07T17:03:48.089Z,1.56
2023-03-07T17:06:17.736Z,1.91
2023-03-07T17:08:47.545Z,1.59
2023-03-07T17:11:20.049Z,1.71
2023-03-07T17:13:49.117Z,1.06
2023-03-07T17:16:18.130Z,1.64
2023-03-07T17:18:46.448Z,1.58
2023-03-07T17:21:15.391Z,1.63
2023-03-07T17:23:44.988Z,1.66
2023-03-07T17:26:19.276Z,1.65
2023-03-07T17:28:47.621Z,1.19
2023-03-07T17:31:15.408Z,1.58
2023-03-07T17:33:43.739Z,1.66
2023-03-07T17:36:12.430Z,1.65
2023-03-07T17:38:40.289Z,1.59
2023-03-07T17:41:08.072Z,1.54
2023-03-07T17:43:37.333Z,1.67
2023-03-07T17:46:09.133Z,1.70
2023-03-07T17:48:37.340Z,1.52
2023-03-07T17:51:09.101Z,1.61
2023-03-07T17:53:37.120Z,0.95
2023-03-07T17:56:09.368Z,1.61
2023-03-07T17:58:38.650Z,1.65
2023-03-07T18:01:08.423Z,1.58
2023-03-07T18:03:36.748Z,1.57
2023-03-07T18:06:04.692Z,1.55
2023-03-07T18:08:32.790Z,1.55
2023-03-07T18:11:04.117Z,1.56
2023-03-07T18:13:31.942Z,1.26
2023-03-07T18:16:01.628Z,1.30
2023-03-07T18:18:32.921Z,1.44
2023-03-07T18:21:02.580Z,1.45
2023-03-07T18:23:30.585Z,1.26
2023-03-07T18:25:59.065Z,1.31
2023-03-07T18:28:27.446Z,1.36
2023-03-07T18:30:59.957Z,1.24
2023-03-07T18:33:29.430Z,1.15
2023-03-07T18:35:57.712Z,1.06
2023-03-07T18:38:26.221Z,1.02
2023-03-07T18:41:04.621Z,1.02
2023-03-07T18:43:32.808Z,1.19
2023-03-07T18:46:00.770Z,0.96
2023-03-07T18:48:29.928Z,1.06
2023-03-07T18:50:59.005Z,1.01
2023-03-07T18:53:27.275Z,0.96
2023-03-07T18:55:55.391Z,0.66
2023-03-07T18:58:23.688Z,0.95
2023-03-07T19:00:51.588Z,0.93
2023-03-07T19:03:19.479Z,0.85
2023-03-07T19:05:50.362Z,0.77
2023-03-07T19:08:18.421Z,0.48
2023-03-07T19:10:46.288Z,0.62
2023-03-07T19:13:14.161Z,0.94
2023-03-07T19:15:43.139Z,0.86
2023-03-07T19:18:12.425Z,0.91
2023-03-07T19:20:40.917Z,0.91
2023-03-07T19:23:10.172Z,0.97
2023-03-07T19:25:37.955Z,0.69
2023-03-07T19:28:05.782Z,0.89
2023-03-07T19:30:35.551Z,0.83
2023-03-07T19:33:03.406Z,0.55
2023-03-07T19:35:31.520Z,0.85
2023-03-07T19:37:59.722Z,0.92
2023-03-07T19:40:29.695Z,0.98
2023-03-07T19:42:57.828Z,0.91
2023-03-07T19:45:26.958Z,0.84
2023-03-07T19:47:54.772Z,1.02
2023-03-07T19:50:22.663Z,1.01
2023-03-07T19:52:50.471Z,1.09
2023-03-07T19:55:18.328Z,1.09
2023-03-07T19:57:47.874Z,1.01
2023-03-07T20:00:16.672Z,1.17
2023-03-07T20:02:44.693Z,0.95
2023-03-07T20:05:12.674Z,1.33
2023-03-07T20:07:40.993Z,0.94
2023-03-07T20:10:09.949Z,1.34
2023-03-07T20:12:37.785Z,1.39
2023-03-07T20:15:08.419Z,0.70
2023-03-07T20:17:36.643Z,1.40
2023-03-07T20:20:07.944Z,1.12
2023-03-07T20:22:35.862Z,1.24
2023-03-07T20:25:03.745Z,1.19
2023-03-07T20:27:31.664Z,1.22
2023-03-07T20:29:59.573Z,1.01
2023-03-07T20:32:28.929Z,1.04
2023-03-07T20:35:03.338Z,1.13
2023-03-07T20:37:32.962Z,0.99
2023-03-07T20:40:02.147Z,1.06
2023-03-07T20:42:30.701Z,1.13
2023-03-07T20:44:58.635Z,1.17
2023-03-07T20:47:28.524Z,1.29
2023-03-07T20:49:56.576Z,1.31
2023-03-07T20:52:25.909Z,1.43
2023-03-07T20:54:53.873Z,1.46
2023-03-07T20:57:21.710Z,1.40
2023-03-07T20:59:50.005Z,1.37
2023-03-07T21:02:17.991Z,1.49
2023-03-07T21:04:49.690Z,1.22
2023-03-07T21:07:17.938Z,1.04
2023-03-07T21:09:50.756Z,1.42
2023-03-07T21:12:18.856Z,1.35
2023-03-07T21:14:46.870Z,1.58
2023-03-07T21:17:14.645Z,1.47
2023-03-07T21:19:42.546Z,1.20
2023-03-07T21:22:11.828Z,1.77
2023-03-07T21:24:40.000Z,1.83
2023-03-07T21:27:07.766Z,1.80
2023-03-07T21:29:35.661Z,1.14
2023-03-07T21:32:03.781Z,1.62
2023-03-07T21:34:31.682Z,1.38
2023-03-07T21:36:59.573Z,1.43
2023-03-07T21:39:28.942Z,1.54
2023-03-07T21:41:56.942Z,1.56
2023-03-07T21:44:25.068Z,1.41
2023-03-07T21:46:52.912Z,1.32
2023-03-07T21:49:21.066Z,1.44
2023-03-07T21:51:48.937Z,1.40
2023-03-07T21:54:16.908Z,1.66
2023-03-07T21:56:46.250Z,1.67
2023-03-07T21:59:14.421Z,1.63
2023-03-07T22:01:42.273Z,1.35
2023-03-07T22:04:10.155Z,1.59
2023-03-07T22:06:38.125Z,1.57
2023-03-07T22:09:06.209Z,1.46
2023-03-07T22:11:34.202Z,1.41
2023-03-07T22:14:03.874Z,1.39
2023-03-07T22:16:31.894Z,1.48
2023-03-07T22:18:59.815Z,1.07
2023-03-07T22:21:28.038Z,1.54
2023-03-07T22:23:58.026Z,1.50
2023-03-07T22:26:26.757Z,1.28
2023-03-07T22:28:55.000Z,1.10
2023-03-07T22:31:25.460Z,1.23
2023-03-07T22:33:53.553Z,1.29
2023-03-07T22:36:22.304Z,1.46
2023-03-07T22:38:55.116Z,1.36
2023-03-07T22:41:24.361Z,1.39
2023-03-07T22:43:53.097Z,1.33
2023-03-07T22:46:21.532Z,1.45
2023-03-07T22:48:54.255Z,1.68
2023-03-07T22:51:22.240Z,1.50
2023-03-07T22:53:50.128Z,1.13
2023-03-07T22:56:20.201Z,1.50
2023-03-07T22:58:48.657Z,1.25
2023-03-07T23:01:20.172Z,1.65
2023-03-07T23:03:49.725Z,1.47
2023-03-07T23:06:19.807Z,1.62
2023-03-07T23:08:49.534Z,1.60
2023-03-07T23:11:19.383Z,0.94
2023-03-07T23:13:47.780Z,1.70
2023-03-07T23:16:17.587Z,1.54
2023-03-07T23:18:46.772Z,1.56
2023-03-07T23:21:16.564Z,1.62
2023-03-07T23:23:46.243Z,1.54
2023-03-07T23:26:18.554Z,1.34
2023-03-07T23:28:46.674Z,1.34
2023-03-07T23:31:18.768Z,0.39
2023-03-07T23:33:46.675Z,1.28
2023-03-07T23:36:14.475Z,1.08
2023-03-07T23:38:42.576Z,1.36
2023-03-07T23:41:11.916Z,1.28
2023-03-07T23:43:40.230Z,1.16
2023-03-07T23:46:08.231Z,1.40
2023-03-07T23:48:36.132Z,1.13
2023-03-07T23:51:03.963Z,1.19
2023-03-07T23:53:31.845Z,0.97
2023-03-07T23:55:59.745Z,1.04
2023-03-07T23:58:28.977Z,1.24
